Time;durP1;ratioP1;P1;durP2;ratioP2;P2;SDS_P1;SDS_P2;PMS_P1;PMS_P2;Temp;Humidity;BMP_temperature;BMP_pressure;BME280_temperature;BME280_humidity;BME280_pressure;Samples;Min_cycle;Max_cycle;Signal;HPM_P1;HPM_P2
2023/01/19 00:00:44;;;;;;;6.82;2.53;;;3.40;88.20;;;;;;4990426;28;20054;-77
2023/01/19 00:03:14;;;;;;;6.30;2.40;;;3.40;88.20;;;;;;5024280;28;20523;-78
2023/01/19 00:05:42;;;;;;;4.68;1.90;;;3.40;88.30;;;;;;5009014;28;20046;-78
2023/01/19 00:08:14;;;;;;;4.90;2.00;;;3.50;88.40;;;;;;5024309;28;20050;-78
2023/01/19 00:10:42;;;;;;;4.72;1.80;;;3.50;88.30;;;;;;5009204;28;20760;-78
2023/01/19 00:13:09;;;;;;;6.15;2.78;;;3.50;88.10;;;;;;4991256;28;20117;-79
2023/01/19 00:15:36;;;;;;;3.80;1.38;;;3.50;88.20;;;;;;4987940;28;20110;-78
2023/01/19 00:18:04;;;;;;;3.33;1.15;;;3.50;88.00;;;;;;4971277;28;20047;-78
2023/01/19 00:20:34;;;;;;;3.43;1.30;;;3.50;88.00;;;;;;4987771;28;20498;-78
2023/01/19 00:23:01;;;;;;;3.83;1.15;;;3.50;87.80;;;;;;5003866;28;20896;-78
2023/01/19 00:25:28;;;;;;;4.25;1.25;;;3.40;87.50;;;;;;4987419;28;20050;-78
2023/01/19 00:27:55;;;;;;;3.85;1.40;;;3.40;87.50;;;;;;4988877;28;20250;-78
2023/01/19 00:30:22;;;;;;;2.75;1.00;;;3.30;87.40;;;;;;4973609;28;20050;-77
2023/01/19 00:32:49;;;;;;;3.80;1.60;;;3.30;87.20;;;;;;5016118;28;20511;-78
2023/01/19 00:35:17;;;;;;;3.10;1.38;;;3.30;86.90;;;;;;4989969;28;20273;-77
2023/01/19 00:37:45;;;;;;;3.42;1.00;;;3.30;86.70;;;;;;4981538;28;20058;-77
2023/01/19 00:40:13;;;;;;;4.07;1.88;;;3.30;86.90;;;;;;4991762;28;20046;-78
2023/01/19 00:42:40;;;;;;;3.10;1.17;;;3.20;87.10;;;;;;5026812;28;20058;-77
2023/01/19 00:45:08;;;;;;;3.97;1.80;;;3.10;87.10;;;;;;4994178;28;20724;-78
2023/01/19 00:47:36;;;;;;;3.13;1.05;;;3.10;87.00;;;;;;5011716;28;20274;-77
2023/01/19 00:50:03;;;;;;;3.95;1.40;;;3.10;86.70;;;;;;5012025;28;20136;-77
2023/01/19 00:52:30;;;;;;;6.18;2.10;;;3.00;86.90;;;;;;5027350;28;20161;-78
2023/01/19 00:54:58;;;;;;;4.28;1.52;;;3.00;86.90;;;;;;5010408;28;20532;-77
2023/01/19 00:57:26;;;;;;;4.13;1.53;;;3.00;87.00;;;;;;4993719;28;20156;-77
2023/01/19 00:59:53;;;;;;;2.88;1.10;;;3.00;87.10;;;;;;5011591;28;20262;-78
2023/01/19 01:02:24;;;;;;;3.15;1.00;;;3.00;87.20;;;;;;4993395;28;20133;-77
2023/01/19 01:04:53;;;;;;;3.58;1.17;;;2.90;87.20;;;;;;5026960;28;20153;-77
2023/01/19 01:07:20;;;;;;;3.50;0.98;;;2.90;87.30;;;;;;4990306;28;20460;-77
2023/01/19 01:09:48;;;;;;;3.30;1.23;;;2.90;87.20;;;;;;4990097;28;20066;-77
2023/01/19 01:12:16;;;;;;;3.20;1.30;;;2.90;87.20;;;;;;4993440;28;20286;-78
2023/01/19 01:14:43;;;;;;;3.03;1.00;;;2.80;87.50;;;;;;5011811;28;20076;-77
2023/01/19 01:17:13;;;;;;;3.85;1.30;;;2.80;87.50;;;;;;5010180;28;20076;-78
2023/01/19 01:19:40;;;;;;;3.67;1.52;;;2.80;87.70;;;;;;5026502;28;20054;-77
2023/01/19 01:22:08;;;;;;;3.53;1.47;;;2.80;87.80;;;;;;5011052;28;20057;-78
2023/01/19 01:24:37;;;;;;;3.63;1.42;;;2.80;87.80;;;;;;5011425;28;20292;-77
2023/01/19 01:27:04;;;;;;;3.70;1.17;;;2.80;87.80;;;;;;4990173;28;20081;-77
2023/01/19 01:29:34;;;;;;;4.03;1.70;;;2.80;87.90;;;;;;4991520;28;20054;-78
2023/01/19 01:32:01;;;;;;;4.10;2.05;;;2.80;88.00;;;;;;5007416;28;20157;-78
2023/01/19 01:34:28;;;;;;;5.50;2.33;;;2.80;88.00;;;;;;5026294;28;20084;-78
2023/01/19 01:36:55;;;;;;;4.68;2.45;;;2.70;88.00;;;;;;4996893;28;20258;-77
2023/01/19 01:39:22;;;;;;;4.88;2.53;;;2.80;88.00;;;;;;4993212;28;20058;-77
2023/01/19 01:41:49;;;;;;;6.68;3.30;;;2.80;88.10;;;;;;5010978;28;20054;-78
2023/01/19 01:44:48;;;;;;;6.13;3.60;;;2.80;88.20;;;;;;4993360;28;20081;-78
2023/01/19 01:47:19;;;;;;;6.73;3.70;;;2.80;88.20;;;;;;4992915;28;20425;-78
2023/01/19 01:49:47;;;;;;;6.15;3.42;;;2.70;88.20;;;;;;5011295;28;21204;-78
2023/01/19 01:52:15;;;;;;;6.43;2.63;;;2.80;88.20;;;;;;4992834;28;20057;-77
2023/01/19 01:54:43;;;;;;;7.80;4.10;;;2.70;88.20;;;;;;5025985;28;20535;-77
2023/01/19 01:57:12;;;;;;;6.20;3.20;;;2.70;88.40;;;;;;4992559;28;20049;-77
2023/01/19 01:59:43;;;;;;;7.00;4.20;;;2.70;88.40;;;;;;5025221;28;20074;-77
2023/01/19 02:05:07;;;;;;;8.27;4.63;;;2.70;88.40;;;;;;5009300;28;20046;-78
2023/01/19 02:13:18;;;;;;;8.43;4.57;;;2.70;88.70;;;;;;4992929;28;20047;-77
2023/01/19 02:15:45;;;;;;;8.07;4.90;;;2.70;88.80;;;;;;5010748;28;20832;-77
2023/01/19 02:18:14;;;;;;;8.70;5.03;;;2.70;88.90;;;;;;5024809;28;20082;-77
2023/01/19 02:20:47;;;;;;;10.63;5.72;;;2.70;88.90;;;;;;4992503;28;20057;-77
2023/01/19 02:23:20;;;;;;;10.45;5.47;;;2.70;89.10;;;;;;4992484;28;20149;-78
2023/01/19 02:25:53;;;;;;;10.53;6.87;;;2.70;89.20;;;;;;4992260;28;20054;-78
2023/01/19 02:28:21;;;;;;;10.68;5.30;;;2.80;89.30;;;;;;5025721;28;20276;-77
2023/01/19 02:30:48;;;;;;;9.80;6.10;;;2.80;89.20;;;;;;5021126;28;20200;-78
2023/01/19 02:33:15;;;;;;;11.77;6.63;;;2.80;89.10;;;;;;5025464;28;20050;-77
2023/01/19 02:35:43;;;;;;;10.82;6.28;;;2.80;89.00;;;;;;5008967;28;20050;-78
2023/01/19 02:38:11;;;;;;;11.70;6.60;;;2.80;89.20;;;;;;5025442;28;20073;-77
2023/01/19 02:40:42;;;;;;;11.23;7.07;;;2.80;89.10;;;;;;4992130;28;20258;-77
2023/01/19 02:43:15;;;;;;;9.88;5.97;;;2.80;89.20;;;;;;4984377;28;20130;-78
2023/01/19 02:45:42;;;;;;;10.88;5.82;;;2.80;89.30;;;;;;4992377;28;20046;-77
2023/01/19 02:48:10;;;;;;;11.27;6.18;;;2.80;89.20;;;;;;4992135;28;20050;-77
2023/01/19 02:50:42;;;;;;;10.93;5.97;;;2.80;89.30;;;;;;5025119;28;20148;-77
2023/01/19 02:53:32;;;;;;;10.82;5.95;;;2.80;89.30;;;;;;4992243;28;20305;-77
2023/01/19 02:56:09;;;;;;;11.63;6.07;;;2.80;89.60;;;;;;4991855;28;20077;-77
2023/01/19 02:58:45;;;;;;;12.10;7.13;;;2.80;89.60;;;;;;4992667;28;20051;-77
2023/01/19 03:01:19;;;;;;;10.40;5.63;;;2.90;89.60;;;;;;4991842;28;20053;-78
2023/01/19 03:03:57;;;;;;;11.20;6.30;;;2.90;89.40;;;;;;5009247;28;20685;-78
2023/01/19 03:06:36;;;;;;;11.13;6.40;;;2.90;89.60;;;;;;5038992;23;20271;-77
2023/01/19 03:09:11;;;;;;;10.93;6.28;;;2.90;89.60;;;;;;5066420;28;20053;-78
2023/01/19 03:11:44;;;;;;;8.55;5.45;;;2.90;89.50;;;;;;5061467;28;20049;-78
2023/01/19 03:14:17;;;;;;;8.80;5.20;;;2.90;89.60;;;;;;5051541;28;20072;-77
2023/01/19 03:16:47;;;;;;;8.20;4.97;;;2.90;89.50;;;;;;5067873;28;20928;-77
2023/01/19 03:19:20;;;;;;;9.38;4.80;;;2.90;89.50;;;;;;5067729;28;20718;-78
2023/01/19 03:21:50;;;;;;;6.45;3.45;;;2.90;89.30;;;;;;5077718;28;20819;-78
2023/01/19 03:24:19;;;;;;;6.45;3.53;;;2.90;89.10;;;;;;5067403;28;20068;-77
2023/01/19 03:26:54;;;;;;;6.18;3.33;;;2.90;89.10;;;;;;5067435;28;20168;-77
2023/01/19 03:29:27;;;;;;;6.07;2.70;;;2.80;89.10;;;;;;5067487;28;20072;-77
2023/01/19 03:31:57;;;;;;;6.28;3.58;;;2.80;89.00;;;;;;5049541;28;20419;-77
2023/01/19 03:34:25;;;;;;;6.38;3.08;;;2.80;89.00;;;;;;5067815;28;20438;-78
2023/01/19 03:36:54;;;;;;;6.72;3.80;;;2.80;88.80;;;;;;5067978;28;20511;-78
2023/01/19 03:39:23;;;;;;;6.63;3.63;;;2.80;88.70;;;;;;5057478;28;20132;-78
2023/01/19 03:41:53;;;;;;;6.50;3.63;;;2.80;88.50;;;;;;5067721;28;20818;-78
2023/01/19 03:44:23;;;;;;;6.18;3.20;;;2.80;88.50;;;;;;5067422;28;20256;-78
2023/01/19 03:46:50;;;;;;;5.82;3.65;;;2.70;88.50;;;;;;5067480;28;20060;-78
2023/01/19 03:49:18;;;;;;;6.07;2.95;;;2.70;88.70;;;;;;5067325;28;20040;-77
2023/01/19 03:51:45;;;;;;;5.18;2.55;;;2.70;88.70;;;;;;5067722;28;20601;-78
2023/01/19 03:54:12;;;;;;;5.33;2.70;;;2.60;88.90;;;;;;5067478;28;20049;-78
2023/01/19 03:56:39;;;;;;;4.50;1.85;;;2.70;88.90;;;;;;5067345;28;20284;-77
2023/01/19 03:59:06;;;;;;;4.93;2.20;;;2.70;88.70;;;;;;5067228;28;20768;-77
2023/01/19 04:01:35;;;;;;;5.35;2.70;;;2.60;88.70;;;;;;5069257;28;20502;-78
2023/01/19 04:04:02;;;;;;;5.25;2.30;;;2.50;89.00;;;;;;5067330;28;20053;-77
2023/01/19 04:06:29;;;;;;;5.93;2.10;;;2.60;89.00;;;;;;5066914;28;20056;-77
2023/01/19 04:08:56;;;;;;;4.47;2.05;;;2.50;89.00;;;;;;5067034;28;21111;-77
2023/01/19 04:11:23;;;;;;;5.22;1.85;;;2.50;89.10;;;;;;5067509;28;20072;-77
2023/01/19 04:13:50;;;;;;;4.25;1.73;;;2.50;89.10;;;;;;5066533;28;20170;-78
2023/01/19 04:16:19;;;;;;;5.28;1.88;;;2.50;89.30;;;;;;5049654;28;20087;-77
2023/01/19 04:18:48;;;;;;;4.10;1.60;;;2.50;89.40;;;;;;5068566;28;20076;-77
2023/01/19 04:21:16;;;;;;;3.72;1.33;;;2.50;89.40;;;;;;5068584;28;20304;-77
2023/01/19 04:23:44;;;;;;;3.75;1.10;;;2.50;89.40;;;;;;5067006;28;20487;-77
2023/01/19 04:26:12;;;;;;;3.58;1.05;;;2.50;89.50;;;;;;5067138;28;20049;-77
2023/01/19 04:28:39;;;;;;;4.00;1.20;;;2.50;89.50;;;;;;5067015;28;20196;-77
2023/01/19 04:31:07;;;;;;;3.63;1.00;;;2.60;89.60;;;;;;5068190;28;20053;-78
2023/01/19 04:33:35;;;;;;;3.70;0.90;;;2.60;89.70;;;;;;5049978;28;20266;-78
2023/01/19 04:36:04;;;;;;;3.75;0.90;;;2.70;89.80;;;;;;5068790;28;20168;-77
2023/01/19 04:38:31;;;;;;;4.60;0.90;;;2.70;89.80;;;;;;5066561;28;20053;-77
2023/01/19 04:40:58;;;;;;;4.90;0.60;;;2.70;90.00;;;;;;5066686;28;20084;-78
2023/01/19 04:43:25;;;;;;;5.07;0.70;;;2.70;90.00;;;;;;5066891;28;20132;-77
2023/01/19 04:45:52;;;;;;;3.65;0.60;;;2.80;90.10;;;;;;5066875;28;20370;-78
2023/01/19 04:48:19;;;;;;;4.78;1.15;;;2.80;90.20;;;;;;5066326;28;20099;-77
2023/01/19 04:50:47;;;;;;;2.90;0.70;;;2.80;90.20;;;;;;5068163;28;20049;-78
2023/01/19 04:53:17;;;;;;;3.60;0.70;;;2.90;90.20;;;;;;5066836;28;20064;-77
2023/01/19 04:55:45;;;;;;;3.27;0.70;;;2.90;90.30;;;;;;5067070;28;20096;-78
2023/01/19 04:58:12;;;;;;;4.50;0.65;;;2.90;90.30;;;;;;5066911;28;20725;-78
2023/01/19 05:00:39;;;;;;;4.97;0.60;;;2.90;90.30;;;;;;5066173;28;20056;-77
2023/01/19 05:03:06;;;;;;;5.13;1.08;;;3.00;90.30;;;;;;5066407;28;20049;-78
2023/01/19 05:05:33;;;;;;;4.82;1.00;;;3.00;90.40;;;;;;5067735;28;20049;-78
2023/01/19 05:08:00;;;;;;;3.93;0.80;;;3.00;90.40;;;;;;5066744;28;20053;-78
2023/01/19 05:10:29;;;;;;;4.03;0.80;;;3.00;90.40;;;;;;5067692;28;21008;-78
2023/01/19 05:12:56;;;;;;;4.10;0.90;;;3.00;90.40;;;;;;5066457;28;20041;-78
2023/01/19 05:15:23;;;;;;;3.90;0.73;;;3.10;90.40;;;;;;5066695;28;20053;-78
2023/01/19 05:17:51;;;;;;;3.63;0.55;;;3.10;90.30;;;;;;5066500;28;20055;-77
2023/01/19 05:20:18;;;;;;;2.90;0.53;;;3.10;90.30;;;;;;5049821;28;20495;-78
2023/01/19 05:22:50;;;;;;;3.55;0.85;;;3.10;90.50;;;;;;5066783;28;20835;-77
2023/01/19 05:25:17;;;;;;;4.10;0.82;;;3.10;90.40;;;;;;5049711;28;20049;-77
2023/01/19 05:27:46;;;;;;;4.45;0.68;;;3.10;90.40;;;;;;5069552;28;20041;-77
2023/01/19 05:30:13;;;;;;;4.57;0.55;;;3.10;90.50;;;;;;5052899;28;20041;-77
2023/01/19 05:32:40;;;;;;;7.23;1.27;;;3.10;90.50;;;;;;5069772;28;20123;-78
2023/01/19 05:35:08;;;;;;;4.05;0.55;;;3.10;90.60;;;;;;5069505;28;20290;-77
2023/01/19 05:37:35;;;;;;;6.50;0.85;;;3.10;90.60;;;;;;5069831;28;20103;-78
2023/01/19 05:40:02;;;;;;;2.63;0.30;;;3.10;91.00;;;;;;5070635;28;20049;-77
2023/01/19 05:42:29;;;;;;;4.43;0.50;;;3.10;91.40;;;;;;5070670;28;20049;-78
2023/01/19 05:45:23;;;;;;;2.33;0.27;;;3.10;91.30;;;;;;5071640;28;20122;-77
2023/01/19 05:47:50;;;;;;;2.45;0.40;;;3.20;91.10;;;;;;5053273;28;20330;-77
2023/01/19 05:50:17;;;;;;;2.92;0.30;;;3.20;91.40;;;;;;5070543;28;20588;-77
2023/01/19 05:52:44;;;;;;;2.10;0.25;;;3.20;91.50;;;;;;5052579;28;20053;-77
2023/01/19 05:55:11;;;;;;;5.88;0.40;;;3.30;91.70;;;;;;5070588;28;20059;-78
2023/01/19 05:57:38;;;;;;;2.30;0.10;;;3.30;91.70;;;;;;5069280;28;20135;-77
2023/01/19 06:00:06;;;;;;;3.70;0.30;;;3.30;91.70;;;;;;5069020;28;21137;-77
2023/01/19 06:02:37;;;;;;;4.93;0.20;;;3.30;91.70;;;;;;5069349;28;20923;-77
2023/01/19 06:05:05;;;;;;;3.83;0.55;;;3.30;91.50;;;;;;5066979;28;20049;-78
2023/01/19 06:07:32;;;;;;;1.50;0.17;;;3.40;91.40;;;;;;5070169;28;20071;-78
2023/01/19 06:09:59;;;;;;;5.83;0.63;;;3.40;91.20;;;;;;5064599;28;20055;-77
2023/01/19 06:12:27;;;;;;;4.70;0.30;;;3.50;91.10;;;;;;5062134;28;20351;-77
2023/01/19 06:14:54;;;;;;;4.13;0.20;;;3.50;91.00;;;;;;5069168;28;20541;-77
2023/01/19 06:17:21;;;;;;;3.85;0.20;;;3.50;91.10;;;;;;5068760;28;20049;-78
2023/01/19 06:19:49;;;;;;;4.15;0.40;;;3.50;91.00;;;;;;5061516;28;20045;-77
2023/01/19 06:22:16;;;;;;;3.63;0.30;;;3.50;90.80;;;;;;5050787;28;20049;-77
2023/01/19 06:24:43;;;;;;;4.07;0.30;;;3.50;90.70;;;;;;5070336;28;20394;-77
2023/01/19 06:27:12;;;;;;;2.38;0.25;;;3.50;90.60;;;;;;5068866;28;20053;-78
2023/01/19 06:29:39;;;;;;;3.08;0.22;;;3.50;90.60;;;;;;5068749;28;20080;-77
2023/01/19 06:32:07;;;;;;;4.95;0.47;;;3.50;90.40;;;;;;5072253;28;20425;-77
2023/01/19 06:34:34;;;;;;;7.63;0.80;;;3.50;90.40;;;;;;5068516;28;20073;-77
2023/01/19 06:37:03;;;;;;;3.78;0.77;;;3.50;90.30;;;;;;5070231;28;20331;-77
2023/01/19 06:39:30;;;;;;;3.13;0.30;;;3.50;90.20;;;;;;5085187;28;20049;-77
2023/01/19 06:41:57;;;;;;;4.13;0.40;;;3.50;90.10;;;;;;5070270;28;20577;-77
2023/01/19 06:44:24;;;;;;;5.68;0.50;;;3.50;90.00;;;;;;5068339;28;20052;-77
2023/01/19 06:46:52;;;;;;;3.77;0.20;;;3.50;89.90;;;;;;5069924;28;20056;-77
2023/01/19 06:49:19;;;;;;;3.83;0.40;;;3.50;89.80;;;;;;5068363;28;20249;-77
2023/01/19 06:51:46;;;;;;;2.90;0.17;;;3.50;89.70;;;;;;5068741;28;20060;-77
2023/01/19 06:54:14;;;;;;;2.88;0.20;;;3.50;89.70;;;;;;5068412;28;20123;-77
2023/01/19 06:56:41;;;;;;;6.03;1.02;;;3.50;89.70;;;;;;5068315;28;20076;-77
2023/01/19 06:59:09;;;;;;;5.40;0.83;;;3.50;89.60;;;;;;5069823;28;20053;-78
2023/01/19 07:01:37;;;;;;;5.40;0.40;;;3.50;89.50;;;;;;5069506;28;20272;-77
2023/01/19 07:04:04;;;;;;;4.28;0.35;;;3.50;89.60;;;;;;5068473;28;20103;-77
2023/01/19 07:06:31;;;;;;;4.43;0.25;;;3.50;89.60;;;;;;5069275;28;20057;-77
2023/01/19 07:08:59;;;;;;;6.63;0.68;;;3.50;89.60;;;;;;5067684;28;20047;-77
2023/01/19 07:11:27;;;;;;;6.10;0.80;;;3.50;89.70;;;;;;5067456;28;20507;-78
2023/01/19 07:13:55;;;;;;;6.45;0.50;;;3.50;90.00;;;;;;5064371;28;20268;-78
2023/01/19 07:16:22;;;;;;;2.97;0.20;;;3.50;90.10;;;;;;5064277;28;20073;-78
2023/01/19 07:18:49;;;;;;;3.45;0.20;;;3.50;90.10;;;;;;5067884;28;20045;-77
2023/01/19 07:21:17;;;;;;;1.75;0.20;;;3.50;90.10;;;;;;5065619;28;20893;-78
2023/01/19 07:23:44;;;;;;;5.93;0.77;;;3.50;89.90;;;;;;5066045;28;20055;-78
2023/01/19 07:26:14;;;;;;;5.45;0.70;;;3.50;89.80;;;;;;5061749;28;20283;-78
2023/01/19 07:28:42;;;;;;;6.68;0.55;;;3.50;89.70;;;;;;5066670;28;20499;-78
2023/01/19 07:31:09;;;;;;;1.95;0.32;;;3.60;89.70;;;;;;5066639;28;20048;-78
2023/01/19 07:33:36;;;;;;;5.22;0.50;;;3.60;89.60;;;;;;5050241;28;20144;-77
2023/01/19 07:36:04;;;;;;;5.63;0.60;;;3.60;89.50;;;;;;5066597;28;20057;-78
2023/01/19 07:38:31;;;;;;;4.68;0.50;;;3.60;89.40;;;;;;5062353;28;20730;-78
2023/01/19 07:41:01;;;;;;;4.32;0.30;;;3.60;89.40;;;;;;5065634;28;20049;-78
2023/01/19 07:43:29;;;;;;;5.75;0.70;;;3.60;89.30;;;;;;5067483;28;20506;-78
2023/01/19 07:45:59;;;;;;;2.72;0.40;;;3.60;89.20;;;;;;5059906;28;20915;-78
2023/01/19 07:48:26;;;;;;;7.70;1.17;;;3.60;89.10;;;;;;5080739;28;20073;-78
2023/01/19 07:50:58;;;;;;;4.82;0.68;;;3.60;89.10;;;;;;5067825;28;20259;-78
2023/01/19 07:53:25;;;;;;;7.55;0.70;;;3.60;89.00;;;;;;5062931;28;20055;-78
2023/01/19 07:55:55;;;;;;;5.60;0.50;;;3.60;88.90;;;;;;5066342;28;20517;-77
2023/01/19 07:58:22;;;;;;;6.30;0.57;;;3.60;88.90;;;;;;5061684;28;20053;-78
2023/01/19 08:00:49;;;;;;;4.73;0.40;;;3.60;88.90;;;;;;5067386;28;20065;-78
2023/01/19 08:03:19;;;;;;;8.25;0.70;;;3.60;88.80;;;;;;5066497;28;20283;-78
2023/01/19 08:05:50;;;;;;;8.07;0.70;;;3.60;88.80;;;;;;5063840;28;20050;-78
2023/01/19 08:08:18;;;;;;;7.43;1.00;;;3.60;88.80;;;;;;5080773;28;20077;-78
2023/01/19 08:10:49;;;;;;;4.80;0.68;;;3.60;88.80;;;;;;5065251;28;20061;-78
2023/01/19 08:13:16;;;;;;;6.10;0.40;;;3.60;88.80;;;;;;5090279;28;20045;-78
2023/01/19 08:15:43;;;;;;;5.68;0.40;;;3.60;88.80;;;;;;5063691;28;21411;-78
2023/01/19 08:18:10;;;;;;;7.47;0.82;;;3.50;88.70;;;;;;5064787;28;20144;-78
2023/01/19 08:20:38;;;;;;;7.32;1.00;;;3.60;88.70;;;;;;5067575;28;20095;-77
2023/01/19 08:23:06;;;;;;;7.72;0.73;;;3.60;88.70;;;;;;5066630;28;20067;-78
2023/01/19 08:25:34;;;;;;;7.83;0.60;;;3.50;88.70;;;;;;5068604;28;20492;-78
2023/01/19 08:28:02;;;;;;;7.60;0.65;;;3.60;88.70;;;;;;5066883;28;20248;-78
2023/01/19 08:30:30;;;;;;;5.22;0.63;;;3.50;88.60;;;;;;5067525;28;20119;-78
2023/01/19 08:33:02;;;;;;;9.13;0.88;;;3.50;88.50;;;;;;5066791;28;20511;-78
2023/01/19 08:35:30;;;;;;;6.60;0.70;;;3.50;88.30;;;;;;5066009;28;20061;-78
2023/01/19 08:38:00;;;;;;;4.70;0.40;;;3.50;88.20;;;;;;5014440;28;20071;-78
2023/01/19 08:40:27;;;;;;;9.10;1.05;;;3.50;88.20;;;;;;5056512;28;20273;-78
2023/01/19 08:43:00;;;;;;;8.73;1.13;;;3.50;88.00;;;;;;5063549;28;20045;-78
2023/01/19 08:45:28;;;;;;;2.13;0.20;;;3.50;88.10;;;;;;5045902;28;20056;-77
2023/01/19 08:47:56;;;;;;;5.60;0.90;;;3.50;87.80;;;;;;5078575;28;20053;-78
2023/01/19 08:50:23;;;;;;;3.90;0.40;;;3.50;87.50;;;;;;5077916;28;20045;-77
2023/01/19 08:52:50;;;;;;;12.25;1.30;;;3.50;87.60;;;;;;5077495;28;20353;-77
2023/01/19 08:55:18;;;;;;;5.28;0.70;;;3.50;87.40;;;;;;5067345;28;20076;-77
2023/01/19 08:57:45;;;;;;;4.22;0.52;;;3.50;87.30;;;;;;5076757;28;21147;-77
2023/01/19 09:00:14;;;;;;;7.32;0.73;;;3.60;87.10;;;;;;5070378;28;20056;-77
2023/01/19 09:02:42;;;;;;;5.20;0.73;;;3.60;86.80;;;;;;5072759;28;20410;-77
2023/01/19 09:05:09;;;;;;;6.43;0.70;;;3.60;86.70;;;;;;5078573;28;20271;-77
2023/01/19 09:07:37;;;;;;;5.55;0.50;;;3.60;86.20;;;;;;5072538;28;20059;-81
2023/01/19 09:10:04;;;;;;;5.57;0.50;;;3.70;86.10;;;;;;5052676;28;20050;-78
2023/01/19 09:12:34;;;;;;;9.73;1.00;;;3.70;85.90;;;;;;5074762;28;20061;-78
2023/01/19 09:15:01;;;;;;;2.53;0.40;;;3.70;85.80;;;;;;5065638;28;20063;-78
2023/01/19 09:17:28;;;;;;;5.88;0.60;;;3.70;85.70;;;;;;5072313;28;20366;-79
2023/01/19 09:19:55;;;;;;;8.43;0.50;;;3.70;85.50;;;;;;5067477;28;20132;-79
2023/01/19 09:22:22;;;;;;;5.82;0.50;;;3.70;85.40;;;;;;5066113;28;20054;-78
2023/01/19 09:24:49;;;;;;;5.82;0.38;;;3.70;85.30;;;;;;5068949;28;20200;-78
2023/01/19 09:27:17;;;;;;;6.70;0.60;;;3.70;85.20;;;;;;5078648;28;20052;-79
2023/01/19 09:29:51;;;;;;;6.28;0.80;;;3.70;85.10;;;;;;5074900;28;20275;-79
2023/01/19 09:32:19;;;;;;;7.78;0.68;;;3.70;85.00;;;;;;5073749;28;20056;-79
2023/01/19 09:34:46;;;;;;;11.00;1.05;;;3.60;85.20;;;;;;5065042;28;20051;-79
2023/01/19 09:37:15;;;;;;;5.13;0.65;;;3.60;85.10;;;;;;5069804;28;20252;-78
2023/01/19 09:39:42;;;;;;;4.60;0.50;;;3.60;85.10;;;;;;5053509;28;20080;-80
2023/01/19 09:42:18;;;;;;;5.40;0.40;;;3.60;84.80;;;;;;5064496;28;20283;-80
2023/01/19 09:44:49;;;;;;;4.70;0.50;;;3.60;84.80;;;;;;5069661;28;20057;-80
2023/01/19 09:47:21;;;;;;;4.75;0.70;;;3.60;85.00;;;;;;5068106;28;20057;-80
2023/01/19 09:49:53;;;;;;;8.02;0.82;;;3.60;84.90;;;;;;5069101;28;20132;-81
2023/01/19 09:52:21;;;;;;;7.53;0.83;;;3.70;84.90;;;;;;5067794;28;20053;-80
2023/01/19 09:54:54;;;;;;;3.50;0.30;;;3.70;85.00;;;;;;5067810;28;20337;-80
2023/01/19 09:57:21;;;;;;;4.95;0.63;;;3.70;85.00;;;;;;5068041;28;21100;-80
2023/01/19 09:59:50;;;;;;;10.70;1.08;;;3.80;84.90;;;;;;5067296;28;20045;-80
2023/01/19 10:02:30;;;;;;;4.00;0.80;;;3.90;84.50;;;;;;5064119;28;20496;-80
2023/01/19 10:05:01;;;;;;;7.13;1.10;;;3.90;84.10;;;;;;5076027;28;20570;-79
2023/01/19 10:07:53;;;;;;;8.27;0.68;;;4.00;84.10;;;;;;5066138;28;20295;-80
2023/01/19 10:10:22;;;;;;;5.68;0.95;;;4.10;84.20;;;;;;5063103;28;20095;-81
2023/01/19 10:12:59;;;;;;;7.93;0.75;;;4.10;84.10;;;;;;5066197;28;20060;-80
2023/01/19 10:15:45;;;;;;;7.00;1.00;;;4.10;84.10;;;;;;5063381;28;20045;-80
2023/01/19 10:18:19;;;;;;;3.87;0.50;;;4.20;84.00;;;;;;5068132;28;20063;-80
2023/01/19 10:20:50;;;;;;;7.55;0.95;;;4.30;83.60;;;;;;5072589;28;20260;-80
2023/01/19 10:23:36;;;;;;;12.93;1.13;;;4.30;83.60;;;;;;5065225;28;20064;-79
2023/01/19 10:26:09;;;;;;;3.58;0.60;;;4.40;83.60;;;;;;5065595;28;20050;-79
2023/01/19 10:28:37;;;;;;;3.83;0.50;;;4.40;83.70;;;;;;5051689;28;20053;-81
2023/01/19 10:31:08;;;;;;;6.80;0.87;;;4.50;82.50;;;;;;5083730;28;20053;-80
2023/01/19 10:33:36;;;;;;;9.70;1.13;;;4.50;82.60;;;;;;5090457;28;20283;-80
2023/01/19 10:36:17;;;;;;;7.15;0.68;;;4.50;82.40;;;;;;5069080;28;20045;-81
2023/01/19 10:41:50;;;;;;;4.25;0.43;;;4.70;80.50;;;;;;4969527;28;20082;-79
2023/01/19 10:44:24;;;;;;;4.33;0.40;;;4.70;80.50;;;;;;4966013;28;20046;-79
2023/01/19 10:46:54;;;;;;;5.03;0.50;;;4.80;80.10;;;;;;4971291;28;20271;-79
2023/01/19 10:49:27;;;;;;;3.75;0.30;;;4.90;80.20;;;;;;4970897;28;20050;-78
2023/01/19 10:51:55;;;;;;;7.20;0.60;;;5.00;79.40;;;;;;4972773;28;20070;-80
2023/01/19 10:54:23;;;;;;;9.52;0.65;;;5.00;79.40;;;;;;4972426;28;20101;-79
2023/01/19 10:56:56;;;;;;;8.77;0.80;;;5.00;79.70;;;;;;4963194;28;20126;-81
2023/01/19 10:59:32;;;;;;;8.43;0.75;;;5.00;79.30;;;;;;4947164;28;20811;-78
2023/01/19 11:02:16;;;;;;;7.15;0.60;;;5.10;79.10;;;;;;4969132;28;20054;-79
2023/01/19 11:04:45;;;;;;;6.43;0.50;;;5.10;78.40;;;;;;4986921;28;20099;-79
2023/01/19 11:07:19;;;;;;;6.63;0.77;;;5.20;77.60;;;;;;4970613;28;20050;-78
2023/01/19 11:09:47;;;;;;;4.77;0.73;;;5.30;77.40;;;;;;4970625;28;20050;-79
2023/01/19 11:12:20;;;;;;;5.57;0.73;;;5.30;77.60;;;;;;5032251;22;20382;-80
2023/01/19 11:14:48;;;;;;;4.85;0.40;;;5.30;77.90;;;;;;4988152;28;20117;-80
2023/01/19 11:17:24;;;;;;;5.10;0.45;;;5.40;76.10;;;;;;5009900;28;20053;-81
2023/01/19 11:19:59;;;;;;;4.03;0.40;;;5.40;76.40;;;;;;4998507;28;20489;-81
2023/01/19 11:22:29;;;;;;;6.83;0.80;;;5.40;75.70;;;;;;5010487;28;20054;-80
2023/01/19 11:25:01;;;;;;;4.85;0.50;;;5.50;75.00;;;;;;4992613;28;21012;-79
2023/01/19 11:27:29;;;;;;;3.80;0.55;;;5.50;75.20;;;;;;4985587;28;20065;-79
2023/01/19 11:30:04;;;;;;;4.88;0.77;;;5.50;73.70;;;;;;5006811;28;20058;-80
2023/01/19 11:32:35;;;;;;;1.90;0.28;;;5.50;71.60;;;;;;4971848;28;20190;-78
2023/01/19 11:35:18;;;;;;;4.90;0.40;;;5.50;72.90;;;;;;5002525;28;20078;-81
2023/01/19 11:37:45;;;;;;;10.38;0.85;;;5.60;73.20;;;;;;5001366;28;20262;-80
2023/01/19 11:40:12;;;;;;;6.10;0.57;;;5.60;73.00;;;;;;4984790;28;20386;-80
2023/01/19 11:42:39;;;;;;;5.72;0.38;;;5.70;71.40;;;;;;4990807;28;20133;-81
2023/01/19 11:45:13;;;;;;;5.32;0.50;;;5.70;72.20;;;;;;4990184;28;20042;-80
2023/01/19 11:47:44;;;;;;;9.00;0.60;;;5.70;71.10;;;;;;4992802;28;20057;-81
2023/01/19 11:50:23;;;;;;;5.60;0.30;;;5.70;71.20;;;;;;4996317;28;20300;-79
2023/01/19 11:52:55;;;;;;;5.22;0.65;;;5.70;71.20;;;;;;5003142;28;20062;-80
2023/01/19 11:55:30;;;;;;;6.53;0.68;;;5.70;70.30;;;;;;5007422;28;20137;-79
2023/01/19 11:57:58;;;;;;;6.57;0.93;;;5.70;68.70;;;;;;4985932;28;20125;-79
2023/01/19 12:00:28;;;;;;;4.63;0.53;;;5.80;69.50;;;;;;4989795;28;21089;-78
2023/01/19 12:03:00;;;;;;;1.40;0.20;;;5.80;70.60;;;;;;4990474;28;20672;-78
2023/01/19 12:05:33;;;;;;;3.15;0.47;;;5.90;69.40;;;;;;4989220;28;20047;-78
2023/01/19 12:08:05;;;;;;;5.40;0.50;;;5.90;69.20;;;;;;4985902;28;20068;-79
2023/01/19 12:10:36;;;;;;;4.05;0.30;;;5.90;69.20;;;;;;4982112;28;20101;-79
2023/01/19 12:13:04;;;;;;;5.23;0.70;;;5.90;68.50;;;;;;4989329;28;20082;-79
2023/01/19 12:15:36;;;;;;;7.85;0.65;;;5.90;67.90;;;;;;4989293;28;20294;-79
2023/01/19 12:18:07;;;;;;;4.20;0.30;;;5.90;68.20;;;;;;4983946;28;20125;-77
2023/01/19 12:20:38;;;;;;;4.00;0.35;;;6.00;67.30;;;;;;4995524;28;20419;-78
2023/01/19 12:23:18;;;;;;;5.43;0.60;;;5.90;67.60;;;;;;5001667;28;20150;-79
2023/01/19 12:25:58;;;;;;;1.37;0.10;;;5.80;68.20;;;;;;4983201;28;20133;-78
2023/01/19 12:28:30;;;;;;;3.65;0.73;;;5.70;68.70;;;;;;5005125;28;20281;-77
2023/01/19 12:30:59;;;;;;;7.07;0.77;;;5.70;69.10;;;;;;4986369;28;21026;-77
2023/01/19 12:33:34;;;;;;;7.07;0.50;;;5.60;69.80;;;;;;4984374;28;20106;-78
2023/01/19 12:36:04;;;;;;;3.92;0.50;;;5.60;69.70;;;;;;5010477;28;20061;-77
2023/01/19 12:38:53;;;;;;;5.27;0.73;;;5.60;69.50;;;;;;5016750;28;20065;-77
2023/01/19 12:41:28;;;;;;;4.90;0.50;;;5.50;69.70;;;;;;4983057;28;20250;-77
2023/01/19 12:44:18;;;;;;;4.50;0.40;;;5.50;70.10;;;;;;4987597;28;20537;-79
2023/01/19 12:46:48;;;;;;;5.32;0.40;;;5.50;69.70;;;;;;4980132;28;20055;-80
2023/01/19 12:49:24;;;;;;;3.47;0.40;;;5.50;70.00;;;;;;4988143;28;20050;-79
2023/01/19 12:51:53;;;;;;;7.57;0.90;;;5.50;69.40;;;;;;4981034;28;20141;-79
2023/01/19 12:54:26;;;;;;;2.72;0.32;;;5.50;69.20;;;;;;5006558;28;20889;-78
2023/01/19 12:56:58;;;;;;;5.10;0.60;;;5.50;69.40;;;;;;4986506;28;20054;-78
2023/01/19 12:59:27;;;;;;;5.30;0.30;;;5.50;69.80;;;;;;4988302;28;20121;-79
2023/01/19 13:02:32;;;;;;;6.05;0.45;;;5.50;70.10;;;;;;4988288;28;20047;-79
2023/01/19 13:05:16;;;;;;;5.97;0.30;;;5.50;70.70;;;;;;5007989;28;20130;-78
2023/01/19 13:08:15;;;;;;;4.55;0.38;;;5.50;70.80;;;;;;4976511;28;20503;-79
2023/01/19 13:11:19;;;;;;;5.25;0.55;;;5.50;70.90;;;;;;4986602;28;20050;-79
2023/01/19 13:14:26;;;;;;;8.13;0.45;;;5.50;71.10;;;;;;4985229;28;20412;-79
2023/01/19 13:17:01;;;;;;;3.65;0.30;;;5.50;71.40;;;;;;4979429;28;20494;-78
2023/01/19 13:19:41;;;;;;;4.50;0.37;;;5.50;71.70;;;;;;4989612;28;20137;-79
2023/01/19 13:22:46;;;;;;;3.05;0.30;;;5.60;71.80;;;;;;5003830;28;21228;-79